メインページ
METAR-TAF:

METAR-TAF

空港 :

長崎空港

長崎, 日本

緯度: 32-55N, 経度: 129-55E, 海抜: 2m

現時点の気象観測

当レポートは26分前の22:00(UTC)に作成
南東の風 4kt、東/南東からの間で変化する
気温 12°C
湿度 100%
気圧 1018 hPa
視程10km以上
高度3500ftの雲はほとんどない
千切れ雲あり

METAR: RJFU 162200Z 14004KT 110V180 9999 FEW035 BKN/// 12/12 Q1018

時間: 07:26 (22:26 UTC)

予報

当レポートは5時間21分前の17:05(UTC)に作成
予報は16日の 18時(UTC)から 18日の 00時(UTC)まで有効
の風 9kt
視程10km以上
高度2000ftの雲はほとんどない
高度5000ftの雲は散在している
17日の 12時(UTC)から 17日の 15時(UTC)まで徐々に
南東の風 3kt

TAF: RJFU 161705Z 1618/1800 01009KT 9999 FEW020 SCT050 BECMG 1712/1715 14003KT

4,000以上の空港の気象観測と天気予報(METAR報とTAF報)

利用可能な観測所は地図上に黄色い丸と赤い丸で示す。

丸の上にカーソルを重ねると観測所名を参照できる。

次にクリックすると気象観測と天気予報を参照できる。

マップの切り替え:黒色「×」印の緑ボタンをクリックして拡大、「-」印の緑ボタンをクリックして縮小、緑色の三角印をクリックして隣りの地図に切り替え


METAR-TAF: